Pagina principală
METAR-TAF:

METAR-TAF

Aeroporturi :

Naxos, Grecia

Latitudine: 37-04-47N, longitudine: 025-22-01E, elevație: 3 m

Observații meteo curente

Raportul a fost făcut în urmă cu 1 oră și 10 de minute, la 11:50 UTC
Vânt 11 kt de la Sud-est
Temperatură 21°C
Umiditate 49%
Presiune 1016 hPa
Vizibilitate de 10 km sau mai mult
Nori puțini la o înălțime de 2000 picior

METAR: LGNX 251150Z 13011KT 9999 FEW020 21/10 Q1016

Ora: 15:00 (13:00 UTC)


TAF: lipsă

Observații și prognoze meteo pentru peste 4.000 de aeroporturi (rapoarte METAR și TAF).

Stațiile disponibile sunt reprezentate pe hartă prin puncte galbene și roșii.

Țineți indicatorul mouse-ului pe punctul dorit pentru a vedea denumirea stației.

Apoi, faceți clic pentru a vedea observațiile și prognozele meteorologice.

Pentru a schimba harta: Pentru mărire, faceți clic pe butoanele verzi cu cruce neagră; pentru micșorare, pe butonul verde cu o liniuță; pentru hărți învecinate, pe săgețile verzi.


METAR-TAF: